createdAt,value
2019-06-08T00:00:14.758Z,19.31
2019-06-08T00:02:50.311Z,19.29
2019-06-08T00:05:21.043Z,19.28
2019-06-08T00:07:50.457Z,19.26
2019-06-08T00:10:22.749Z,19.26
2019-06-08T00:12:51.627Z,19.24
2019-06-08T00:15:22.260Z,19.23
2019-06-08T00:17:51.722Z,19.22
2019-06-08T00:20:21.870Z,19.22
2019-06-08T00:22:51.434Z,19.19
2019-06-08T00:25:22.203Z,19.21
2019-06-08T00:27:51.901Z,19.18
2019-06-08T00:30:21.411Z,19.18
2019-06-08T00:32:51.148Z,19.14
2019-06-08T00:35:20.781Z,19.13
2019-06-08T00:37:50.262Z,19.12
2019-06-08T00:40:20.987Z,19.09
2019-06-08T00:42:50.508Z,19.06
2019-06-08T00:45:21.572Z,19.02
2019-06-08T00:47:51.166Z,19.01
2019-06-08T00:50:22.963Z,19.00
2019-06-08T00:52:52.325Z,18.98
2019-06-08T00:55:21.965Z,18.99
2019-06-08T00:57:51.387Z,18.96
2019-06-08T01:00:22.407Z,18.91
2019-06-08T01:02:51.994Z,18.87
2019-06-08T01:05:21.897Z,18.83
2019-06-08T01:07:51.504Z,18.81
2019-06-08T01:10:23.411Z,18.79
2019-06-08T01:12:52.853Z,18.76
2019-06-08T01:15:26.881Z,18.74
2019-06-08T01:18:02.906Z,18.74
2019-06-08T01:20:25.587Z,18.69
2019-06-08T01:22:55.504Z,18.65
2019-06-08T01:25:25.807Z,18.61
2019-06-08T01:27:55.333Z,18.62
2019-06-08T01:30:26.362Z,18.63
2019-06-08T01:32:55.773Z,18.61
2019-06-08T01:35:25.161Z,18.61
2019-06-08T01:37:54.587Z,18.62
2019-06-08T01:40:25.282Z,18.63
2019-06-08T01:42:54.718Z,18.64
2019-06-08T01:45:30.278Z,18.62
2019-06-08T01:48:18.837Z,18.59
2019-06-08T01:50:35.945Z,18.58
2019-06-08T01:53:05.776Z,18.59
2019-06-08T01:55:35.208Z,18.58
2019-06-08T01:58:04.769Z,18.58
2019-06-08T02:00:39.476Z,18.58
2019-06-08T02:03:05.698Z,18.55
2019-06-08T02:05:35.082Z,18.55
2019-06-08T02:08:04.557Z,18.55
2019-06-08T02:10:34.959Z,18.52
2019-06-08T02:13:08.442Z,18.51
2019-06-08T02:15:35.875Z,18.50
2019-06-08T02:18:05.463Z,18.49
2019-06-08T02:20:35.298Z,18.51
2019-06-08T02:23:04.931Z,18.50
2019-06-08T02:25:35.723Z,18.52
2019-06-08T02:28:05.389Z,18.52
2019-06-08T02:30:37.175Z,18.54
2019-06-08T02:33:06.189Z,18.55
2019-06-08T02:35:37.684Z,18.57
2019-06-08T02:38:07.025Z,18.56
2019-06-08T02:40:36.958Z,18.58
2019-06-08T02:43:06.572Z,18.59
2019-06-08T02:45:38.426Z,18.61
2019-06-08T02:48:07.648Z,18.62
2019-06-08T02:50:57.359Z,18.64
2019-06-08T02:53:29.581Z,18.62
2019-06-08T02:55:59.484Z,18.63
2019-06-08T02:58:31.046Z,18.65
2019-06-08T03:01:02.272Z,18.69
2019-06-08T03:03:35.916Z,18.71
2019-06-08T03:06:05.716Z,18.67
2019-06-08T03:08:39.259Z,18.67
2019-06-08T03:11:08.612Z,18.69
2019-06-08T03:13:40.025Z,18.71
2019-06-08T03:16:09.223Z,18.73
2019-06-08T03:18:40.149Z,18.73
2019-06-08T03:21:09.889Z,18.72
2019-06-08T03:23:41.503Z,18.72
2019-06-08T03:26:10.639Z,18.72
2019-06-08T03:28:42.192Z,18.72
2019-06-08T03:31:11.561Z,18.73
2019-06-08T03:33:50.741Z,18.73
2019-06-08T03:36:12.307Z,18.74
2019-06-08T03:38:44.753Z,18.75
2019-06-08T03:41:14.213Z,18.74
2019-06-08T03:43:44.536Z,18.75
2019-06-08T03:46:13.912Z,18.74
2019-06-08T03:48:45.796Z,18.74
2019-06-08T03:51:14.439Z,18.73
2019-06-08T03:53:46.468Z,18.74
2019-06-08T03:56:15.005Z,18.70
2019-06-08T03:58:45.992Z,18.70
2019-06-08T04:01:15.546Z,18.68
2019-06-08T04:03:46.217Z,18.65
2019-06-08T04:06:37.664Z,18.64
2019-06-08T04:09:08.815Z,18.64
2019-06-08T04:11:50.304Z,18.63
2019-06-08T04:14:19.936Z,18.61
2019-06-08T04:16:50.254Z,18.60
2019-06-08T04:19:19.815Z,18.59
2019-06-08T04:21:50.636Z,18.58
2019-06-08T04:24:20.279Z,18.59
2019-06-08T04:26:51.657Z,18.59
2019-06-08T04:29:21.078Z,18.58
2019-06-08T04:31:50.571Z,18.58
2019-06-08T04:34:20.026Z,18.59
2019-06-08T04:36:50.408Z,18.60
2019-06-08T04:39:20.367Z,18.59
2019-06-08T04:41:50.941Z,18.58
2019-06-08T04:44:20.430Z,18.58
2019-06-08T04:46:50.101Z,18.60
2019-06-08T04:49:19.537Z,18.59
2019-06-08T04:51:49.537Z,18.58
2019-06-08T04:54:19.664Z,18.58
2019-06-08T04:56:49.552Z,18.58
2019-06-08T04:59:19.114Z,18.55
2019-06-08T05:01:50.113Z,18.56
2019-06-08T05:04:19.543Z,18.52
2019-06-08T05:06:49.525Z,18.50
2019-06-08T05:09:19.264Z,18.50
2019-06-08T05:11:49.677Z,18.49
2019-06-08T05:14:19.714Z,18.50
2019-06-08T05:16:50.068Z,18.48
2019-06-08T05:19:21.288Z,18.46
2019-06-08T05:21:50.755Z,18.46
2019-06-08T05:24:20.571Z,18.43
2019-06-08T05:26:50.230Z,18.41
2019-06-08T05:29:19.632Z,18.36
2019-06-08T05:31:49.764Z,18.35
2019-06-08T05:34:19.805Z,18.32
2019-06-08T05:37:08.757Z,18.32
2019-06-08T05:39:39.545Z,18.27
2019-06-08T05:42:28.470Z,18.27
2019-06-08T05:44:58.305Z,18.28
2019-06-08T05:47:27.734Z,18.33
2019-06-08T05:49:57.385Z,18.37
2019-06-08T05:52:26.838Z,18.37
2019-06-08T05:54:57.881Z,18.39
2019-06-08T05:57:27.250Z,18.41
2019-06-08T05:59:56.711Z,18.43
2019-06-08T06:02:26.633Z,18.44
2019-06-08T06:04:56.642Z,18.46
2019-06-08T06:07:26.115Z,18.49
2019-06-08T06:09:58.575Z,18.52
2019-06-08T06:12:27.936Z,18.55
2019-06-08T06:14:59.643Z,18.56
2019-06-08T06:17:29.202Z,18.56
2019-06-08T06:19:58.816Z,18.56
2019-06-08T06:22:28.401Z,18.56
2019-06-08T06:24:58.295Z,18.57
2019-06-08T06:27:27.740Z,18.55
2019-06-08T06:29:57.161Z,18.56
2019-06-08T06:32:26.588Z,18.56
2019-06-08T06:34:58.697Z,18.53
2019-06-08T06:37:28.517Z,18.53
2019-06-08T06:39:57.938Z,18.54
2019-06-08T06:42:28.381Z,18.58
2019-06-08T06:44:57.903Z,18.60
2019-06-08T06:47:31.168Z,18.62
2019-06-08T06:50:00.534Z,18.67
2019-06-08T06:52:29.975Z,18.73
2019-06-08T06:54:59.453Z,18.78
2019-06-08T06:57:28.945Z,18.84
2019-06-08T06:59:58.337Z,18.90
2019-06-08T07:02:28.208Z,18.96
2019-06-08T07:04:57.612Z,19.02
2019-06-08T07:07:27.298Z,19.06
2019-06-08T07:09:56.696Z,19.11
2019-06-08T07:12:26.421Z,19.16
2019-06-08T07:14:55.782Z,19.23
2019-06-08T07:17:25.182Z,19.29
2019-06-08T07:19:54.757Z,19.39
2019-06-08T07:22:24.211Z,19.48
2019-06-08T07:24:54.536Z,19.66
2019-06-08T07:27:24.225Z,19.89
2019-06-08T07:29:54.763Z,20.19
2019-06-08T07:32:24.894Z,20.44
2019-06-08T07:34:55.296Z,20.62
2019-06-08T07:37:24.819Z,20.69
2019-06-08T07:39:55.948Z,20.74
2019-06-08T07:42:25.370Z,20.74
2019-06-08T07:44:55.185Z,20.75
2019-06-08T07:47:24.623Z,20.73
2019-06-08T07:49:55.459Z,20.68
2019-06-08T07:52:24.963Z,20.66
2019-06-08T07:54:54.779Z,20.62
2019-06-08T07:57:24.228Z,20.58
2019-06-08T07:59:54.584Z,20.49
2019-06-08T08:02:24.528Z,20.41
2019-06-08T08:04:54.617Z,20.32
2019-06-08T08:07:24.124Z,20.24
2019-06-08T08:09:54.811Z,20.17
2019-06-08T08:12:24.329Z,20.18
2019-06-08T08:14:55.176Z,20.57
2019-06-08T08:17:24.853Z,20.93
2019-06-08T08:19:55.146Z,21.32
2019-06-08T08:22:26.560Z,22.04
2019-06-08T08:25:02.301Z,22.86
2019-06-08T08:27:28.036Z,23.80
2019-06-08T08:30:00.047Z,24.72
2019-06-08T08:32:28.776Z,25.59
2019-06-08T08:34:59.213Z,26.37
2019-06-08T08:37:29.335Z,27.03
2019-06-08T08:40:01.315Z,27.69
2019-06-08T08:42:30.230Z,28.20
2019-06-08T08:45:04.999Z,28.40
2019-06-08T08:47:31.401Z,28.33
2019-06-08T08:50:02.147Z,28.12
2019-06-08T08:52:37.217Z,27.71
2019-06-08T08:55:02.790Z,27.19
2019-06-08T08:57:32.462Z,26.72
2019-06-08T09:00:04.916Z,26.32
2019-06-08T09:02:32.992Z,25.89
2019-06-08T09:05:03.754Z,25.49
2019-06-08T09:07:33.494Z,25.15
2019-06-08T09:10:03.773Z,24.86
2019-06-08T09:12:33.484Z,24.56
2019-06-08T09:15:04.039Z,24.31
2019-06-08T09:17:35.132Z,24.07
2019-06-08T09:20:15.336Z,23.82
2019-06-08T09:22:55.141Z,23.58
2019-06-08T09:25:13.939Z,23.37
2019-06-08T09:27:43.290Z,23.37
2019-06-08T09:30:18.243Z,23.36
2019-06-08T09:32:48.028Z,23.34
2019-06-08T09:35:18.759Z,23.25
2019-06-08T09:37:49.201Z,23.20
2019-06-08T09:40:19.819Z,23.17
2019-06-08T09:45:25.711Z,23.34
2019-06-08T09:47:55.479Z,23.63
2019-06-08T09:50:27.687Z,23.92
2019-06-08T09:53:13.101Z,24.20
2019-06-08T09:55:28.844Z,24.31
2019-06-08T09:58:01.876Z,24.36
2019-06-08T10:00:29.914Z,24.32
2019-06-08T10:03:02.486Z,24.32
2019-06-08T10:05:30.665Z,24.51
2019-06-08T10:08:01.902Z,24.80
2019-06-08T10:10:31.190Z,25.00
2019-06-08T10:13:03.556Z,25.09
2019-06-08T10:15:31.974Z,25.07
2019-06-08T10:18:03.168Z,25.00
2019-06-08T10:20:32.793Z,24.90
2019-06-08T10:23:05.114Z,24.78
2019-06-08T10:25:33.316Z,24.61
2019-06-08T10:28:10.154Z,24.47
2019-06-08T10:30:33.798Z,24.28
2019-06-08T10:33:05.137Z,24.14
2019-06-08T10:35:34.598Z,24.14
2019-06-08T10:38:06.952Z,24.24
2019-06-08T10:40:38.319Z,24.30
2019-06-08T10:43:09.877Z,24.34
2019-06-08T10:45:39.294Z,24.39
2019-06-08T10:48:09.693Z,24.52
2019-06-08T10:50:39.195Z,24.62
2019-06-08T10:53:11.910Z,24.68
2019-06-08T10:55:40.842Z,24.67
2019-06-08T10:58:11.376Z,24.70
2019-06-08T11:00:41.433Z,24.76
2019-06-08T11:03:11.911Z,24.90
2019-06-08T11:05:41.291Z,25.19
2019-06-08T11:08:14.477Z,25.55
2019-06-08T11:11:02.868Z,25.91
2019-06-08T11:13:33.384Z,25.98
2019-06-08T11:16:04.137Z,25.78
2019-06-08T11:18:33.931Z,25.45
2019-06-08T11:21:04.115Z,25.07
2019-06-08T11:37:01.911Z,24.26
2019-06-08T11:39:30.886Z,24.39
2019-06-08T11:42:00.468Z,24.54
2019-06-08T11:44:30.050Z,24.63
2019-06-08T11:47:00.409Z,24.60
2019-06-08T11:49:29.799Z,24.53
2019-06-08T11:52:00.388Z,24.40
2019-06-08T11:54:37.100Z,24.28
2019-06-08T11:57:01.216Z,24.22
2019-06-08T11:59:32.637Z,24.30
2019-06-08T12:02:02.030Z,24.49
2019-06-08T12:04:31.416Z,24.71
2019-06-08T12:07:02.071Z,24.93
2019-06-08T12:09:31.489Z,25.12
2019-06-08T12:12:00.869Z,25.23
2019-06-08T12:14:33.531Z,25.28
2019-06-08T12:17:01.544Z,25.26
2019-06-08T12:19:31.531Z,25.23
2019-06-08T12:22:01.091Z,25.24
2019-06-08T12:24:41.381Z,25.29
2019-06-08T12:27:10.246Z,25.37
2019-06-08T12:29:32.790Z,25.44
2019-06-08T12:32:02.180Z,25.53
2019-06-08T12:34:31.559Z,25.66
2019-06-08T12:37:01.211Z,25.75
2019-06-08T12:39:30.593Z,25.86
2019-06-08T12:41:59.987Z,25.94
2019-06-08T12:44:29.374Z,25.99
2019-06-08T12:46:58.848Z,26.01
2019-06-08T12:49:28.789Z,26.00
2019-06-08T12:51:58.909Z,25.96
2019-06-08T12:54:29.313Z,25.91
2019-06-08T12:57:00.757Z,25.88
2019-06-08T12:59:30.321Z,25.88
2019-06-08T13:01:59.707Z,25.85
2019-06-08T13:04:29.428Z,25.81
2019-06-08T13:06:59.417Z,25.81
2019-06-08T13:09:30.041Z,25.77
2019-06-08T13:11:59.773Z,25.69
2019-06-08T13:14:29.690Z,25.60
2019-06-08T13:17:01.158Z,25.51
2019-06-08T13:19:30.685Z,25.42
2019-06-08T13:22:00.136Z,25.37
2019-06-08T13:24:30.169Z,25.40
2019-06-08T13:27:00.238Z,25.42
2019-06-08T13:29:30.627Z,25.44
2019-06-08T13:32:01.545Z,25.42
2019-06-08T13:34:31.136Z,25.38
2019-06-08T13:37:00.529Z,25.33
2019-06-08T13:39:30.586Z,25.29
2019-06-08T13:42:00.775Z,25.28
2019-06-08T13:44:30.762Z,25.25
2019-06-08T13:47:00.842Z,25.21
2019-06-08T13:49:31.079Z,25.24
2019-06-08T13:52:01.181Z,25.30
2019-06-08T13:54:31.472Z,25.43
2019-06-08T13:57:01.275Z,25.53
2019-06-08T13:59:31.359Z,25.59
2019-06-08T14:02:01.654Z,25.58
2019-06-08T14:04:32.362Z,25.50
2019-06-08T14:07:01.852Z,25.34
2019-06-08T14:09:32.340Z,25.17
2019-06-08T14:12:01.997Z,24.98
2019-06-08T14:14:33.771Z,24.82
2019-06-08T14:17:03.580Z,24.66
2019-06-08T14:19:32.983Z,24.55
2019-06-08T14:22:02.424Z,24.48
2019-06-08T14:24:34.677Z,24.41
2019-06-08T14:27:03.802Z,24.37
2019-06-08T14:29:33.206Z,24.34
2019-06-08T14:32:02.973Z,24.35
2019-06-08T14:34:32.914Z,24.38
2019-06-08T14:37:03.181Z,24.38
2019-06-08T14:39:33.322Z,24.45
2019-06-08T14:42:03.339Z,24.53
2019-06-08T14:44:34.078Z,24.63
2019-06-08T14:47:05.149Z,24.71
2019-06-08T14:49:35.271Z,24.80
2019-06-08T14:52:04.971Z,24.83
2019-06-08T14:54:35.346Z,24.79
2019-06-08T14:57:04.921Z,24.77
2019-06-08T14:59:34.340Z,24.72
2019-06-08T15:02:04.384Z,24.66
2019-06-08T15:04:36.890Z,24.59
2019-06-08T15:07:05.566Z,24.53
2019-06-08T15:09:37.491Z,24.49
2019-06-08T15:12:09.019Z,24.50
2019-06-08T15:14:38.584Z,24.49
2019-06-08T15:17:08.584Z,24.48
2019-06-08T15:19:38.219Z,24.44
2019-06-08T15:22:08.790Z,24.42
2019-06-08T15:24:39.125Z,24.39
2019-06-08T15:27:08.580Z,24.41
2019-06-08T15:29:37.961Z,24.45
2019-06-08T15:32:08.109Z,24.48
2019-06-08T15:34:43.317Z,24.53
2019-06-08T15:37:12.717Z,24.55
2019-06-08T15:39:42.546Z,24.54
2019-06-08T15:42:12.203Z,24.53
2019-06-08T15:44:42.919Z,24.52
2019-06-08T15:47:13.978Z,24.50
2019-06-08T15:49:43.471Z,24.46
2019-06-08T15:52:13.485Z,24.44
2019-06-08T15:54:44.393Z,24.44
2019-06-08T15:57:13.797Z,24.45
2019-06-08T15:59:43.471Z,24.45
2019-06-08T16:02:12.862Z,24.45
2019-06-08T16:04:43.913Z,24.42
2019-06-08T16:07:13.677Z,24.39
2019-06-08T16:09:43.092Z,24.35
2019-06-08T16:12:12.491Z,24.33
2019-06-08T16:14:41.896Z,24.30
2019-06-08T16:17:11.527Z,24.28
2019-06-08T16:19:41.238Z,24.21
2019-06-08T16:22:10.879Z,24.09
2019-06-08T16:24:40.485Z,23.96
2019-06-08T16:27:10.003Z,23.86
2019-06-08T16:29:39.420Z,23.74
2019-06-08T16:32:09.052Z,23.63
2019-06-08T16:34:39.753Z,23.53
2019-06-08T16:37:09.394Z,23.43
2019-06-08T16:39:39.012Z,23.38
2019-06-08T16:42:08.558Z,23.33
2019-06-08T16:44:38.731Z,23.26
2019-06-08T16:47:08.786Z,23.17
2019-06-08T16:49:39.663Z,23.04
2019-06-08T16:52:09.081Z,22.96
2019-06-08T16:54:40.939Z,22.87
2019-06-08T16:57:11.177Z,22.78
2019-06-08T16:59:40.709Z,22.70
2019-06-08T17:02:10.226Z,22.61
2019-06-08T17:04:39.650Z,22.54
2019-06-08T17:07:09.561Z,22.46
2019-06-08T17:09:40.115Z,22.39
2019-06-08T17:12:11.673Z,22.30
2019-06-08T17:14:42.248Z,22.25
2019-06-08T17:17:11.639Z,22.21
2019-06-08T17:19:41.044Z,22.16
2019-06-08T17:22:10.666Z,22.10
2019-06-08T17:24:40.824Z,22.05
2019-06-08T17:27:25.696Z,21.98
2019-06-08T17:29:41.751Z,21.96
2019-06-08T17:32:11.418Z,21.92
2019-06-08T17:34:42.329Z,21.88
2019-06-08T17:37:11.810Z,21.87
2019-06-08T17:39:42.271Z,21.85
2019-06-08T17:42:12.168Z,21.83
2019-06-08T17:44:42.568Z,21.82
2019-06-08T17:47:12.053Z,21.82
2019-06-08T17:49:43.238Z,21.79
2019-06-08T17:52:12.781Z,21.77
2019-06-08T17:54:43.702Z,21.75
2019-06-08T17:57:13.055Z,21.71
2019-06-08T17:59:42.538Z,21.68
2019-06-08T18:02:18.904Z,21.64
2019-06-08T18:04:44.525Z,21.62
2019-06-08T18:07:16.930Z,21.60
2019-06-08T18:09:45.649Z,21.59
2019-06-08T18:12:15.362Z,21.58
2019-06-08T18:14:49.187Z,21.53
2019-06-08T18:17:18.612Z,21.49
2019-06-08T18:19:49.612Z,21.44
2019-06-08T18:22:19.210Z,21.37
2019-06-08T18:24:48.636Z,21.33
2019-06-08T18:27:18.355Z,21.28
2019-06-08T18:29:49.107Z,21.23
2019-06-08T18:32:18.593Z,21.22
2019-06-08T18:34:48.379Z,21.19
2019-06-08T18:37:18.398Z,21.14
2019-06-08T18:39:49.455Z,21.09
2019-06-08T18:42:20.507Z,20.99
2019-06-08T18:44:49.899Z,20.88
2019-06-08T18:47:19.294Z,20.77
2019-06-08T18:49:51.253Z,20.68
2019-06-08T18:52:20.658Z,20.55
2019-06-08T18:54:51.018Z,20.45
2019-06-08T18:57:20.478Z,20.36
2019-06-08T18:59:52.765Z,20.24
2019-06-08T19:02:21.515Z,20.14
2019-06-08T19:04:52.413Z,20.03
2019-06-08T19:07:28.142Z,19.96
2019-06-08T19:10:01.013Z,19.90
2019-06-08T19:12:33.789Z,19.85
2019-06-08T19:15:04.786Z,19.79
2019-06-08T19:17:34.196Z,19.73
2019-06-08T19:20:04.482Z,19.68
2019-06-08T19:22:33.887Z,19.60
2019-06-08T19:25:03.541Z,19.55
2019-06-08T19:27:33.004Z,19.49
2019-06-08T19:30:02.473Z,19.46
2019-06-08T19:32:31.891Z,19.42
2019-06-08T19:35:01.499Z,19.37
2019-06-08T19:37:32.805Z,19.33
2019-06-08T19:40:02.013Z,19.27
2019-06-08T19:42:41.404Z,19.22
2019-06-08T19:45:08.813Z,19.16
2019-06-08T19:47:38.417Z,19.13
2019-06-08T19:50:08.575Z,19.09
2019-06-08T19:52:42.074Z,19.03
2019-06-08T19:55:09.620Z,18.99
2019-06-08T19:57:39.291Z,18.91
2019-06-08T20:00:09.117Z,18.84
2019-06-08T20:02:38.529Z,18.76
2019-06-08T20:05:10.450Z,18.68
2019-06-08T20:07:39.426Z,18.61
2019-06-08T20:10:09.768Z,18.53
2019-06-08T20:12:41.191Z,18.42
2019-06-08T20:15:11.379Z,18.33
2019-06-08T20:17:41.639Z,18.26
2019-06-08T20:20:11.912Z,18.18
2019-06-08T20:22:41.765Z,18.11
2019-06-08T20:25:17.911Z,18.02
2019-06-08T20:27:51.578Z,17.94
2019-06-08T20:30:21.365Z,17.85
2019-06-08T20:32:52.392Z,17.79
2019-06-08T20:35:28.247Z,17.72
2019-06-08T20:37:58.049Z,17.64
2019-06-08T20:40:28.519Z,17.56
2019-06-08T20:42:57.993Z,17.50
2019-06-08T20:45:28.367Z,17.45
2019-06-08T20:47:58.479Z,17.38
2019-06-08T20:50:28.191Z,17.34
2019-06-08T20:52:57.875Z,17.27
2019-06-08T20:55:28.261Z,17.20
2019-06-08T20:57:57.971Z,17.16
2019-06-08T21:00:27.485Z,17.08
2019-06-08T21:03:02.688Z,17.02
2019-06-08T21:05:28.358Z,16.93
2019-06-08T21:07:58.924Z,16.88
2019-06-08T21:10:52.265Z,16.83
2019-06-08T21:13:19.742Z,16.76
2019-06-08T21:15:53.812Z,16.71
2019-06-08T21:18:20.939Z,16.71
2019-06-08T21:20:51.173Z,16.69
2019-06-08T21:23:20.668Z,16.67
2019-06-08T21:25:53.249Z,16.63
2019-06-08T21:28:21.176Z,16.62
2019-06-08T21:30:55.266Z,16.60
2019-06-08T21:33:21.834Z,16.57
2019-06-08T21:35:53.516Z,16.53
2019-06-08T21:38:24.217Z,16.51
2019-06-08T21:40:55.992Z,16.47
2019-06-08T21:43:24.995Z,16.45
2019-06-08T21:45:54.814Z,16.43
2019-06-08T21:48:27.392Z,16.42
2019-06-08T21:51:01.049Z,16.40
2019-06-08T21:53:27.674Z,16.37
2019-06-08T21:55:58.358Z,16.36
2019-06-08T21:58:27.837Z,16.32
2019-06-08T22:00:59.682Z,16.30
2019-06-08T22:03:28.647Z,16.29
2019-06-08T22:05:58.874Z,16.28
2019-06-08T22:08:34.387Z,16.26
2019-06-08T22:11:03.843Z,16.24
2019-06-08T22:13:33.305Z,16.20
2019-06-08T22:16:04.232Z,16.18
2019-06-08T22:18:33.812Z,16.18
2019-06-08T22:21:03.648Z,16.17
2019-06-08T22:23:33.080Z,16.17
2019-06-08T22:26:03.663Z,16.20
2019-06-08T22:28:33.455Z,16.20
2019-06-08T22:31:03.826Z,16.22
2019-06-08T22:33:33.433Z,16.22
2019-06-08T22:36:02.810Z,16.22
2019-06-08T22:38:32.546Z,16.22
2019-06-08T22:41:02.381Z,16.18
2019-06-08T22:43:32.847Z,16.15
2019-06-08T22:46:03.501Z,16.15
2019-06-08T22:48:33.023Z,16.14
2019-06-08T22:51:04.020Z,16.14
2019-06-08T22:53:33.684Z,16.15
2019-06-08T22:56:04.438Z,16.19
2019-06-08T22:58:33.982Z,16.21
2019-06-08T23:01:06.474Z,16.27
2019-06-08T23:03:34.526Z,16.29
2019-06-08T23:06:05.595Z,16.35
2019-06-08T23:08:37.435Z,16.38
2019-06-08T23:11:08.467Z,16.39
2019-06-08T23:13:37.819Z,16.46
2019-06-08T23:16:08.786Z,16.49
2019-06-08T23:18:38.524Z,16.52
2019-06-08T23:21:08.892Z,16.54
2019-06-08T23:23:38.557Z,16.56
2019-06-08T23:26:10.489Z,16.59
2019-06-08T23:28:39.074Z,16.62
2019-06-08T23:31:19.338Z,16.63
2019-06-08T23:33:39.579Z,16.64
2019-06-08T23:36:39.455Z,16.65
2019-06-08T23:38:40.126Z,16.64
2019-06-08T23:41:10.166Z,16.64
2019-06-08T23:43:40.019Z,16.64
2019-06-08T23:46:09.564Z,16.62
2019-06-08T23:48:38.954Z,16.61
2019-06-08T23:51:10.842Z,16.62
2019-06-08T23:53:39.481Z,16.60
2019-06-08T23:56:11.743Z,16.60
2019-06-08T23:58:40.327Z,16.59
